Flight Track Log - Related Links

Times and Time Zones

All times are in EDT time to prevent confusion due to time zone crossing. See the N3938G flight status page for this flight to view local times or setup timezone preferences in your user account.

Time Position Orientation Groundspeed Altitude Reporting Facility
EDT Latitude Longitude Course Direction KTS MPH feet Rate Location/Type
Fri 01:44:00 PM 42.1374 -77.0971 262° West  Level Estimated
Fri 01:44:18 PM 42.1022 -77.2611 270° West 121 139 8,000  Level New York Center
Fri 01:45:00 PM 42.1329 -77.1382 262° West  Level Estimated
Fri 01:45:51 PM 42.0953 -77.3258 262° West 126 145 9,600  Level Cleveland Center
Fri 01:46:00 PM 42.1283 -77.1792 262° West  Level Estimated
Fri 01:46:51 PM 42.0944 -77.3678 268° West 116 133 10,100  Level Cleveland Center
Fri 01:47:00 PM 42.1237 -77.2203 261° West  Level Estimated
Fri 01:47:51 PM 42.0872 -77.4103 257° West 116 133 10,900  Level Cleveland Center
Fri 01:48:00 PM 42.1192 -77.2613 261° West  Level Estimated
Fri 01:48:51 PM 42.0800 -77.4553 258° West 121 139 11,600  Level Cleveland Center
Fri 01:49:00 PM 42.1000 -77.2902 270° West  Level FlightAware Approximate
Fri 01:49:51 PM 42.0731 -77.5003 258° West 126 145 12,100  Level Cleveland Center
Fri 01:50:51 PM 42.0681 -77.5511 262° West 126 145 12,700 300 Climbing Cleveland Center
Fri 01:51:51 PM 42.0611 -77.6017 260° West 131 151 12,700  Level Cleveland Center
Fri 01:52:51 PM 42.0542 -77.6581 261° West 143 165 12,700  Level Cleveland Center
Fri 01:53:51 PM 42.0492 -77.7142 263° West 148 170 12,700  Level Cleveland Center
Fri 01:54:51 PM 42.0422 -77.7703 261° West 148 170 12,700  Level Cleveland Center
Fri 01:55:51 PM 42.0353 -77.8267 261° West 148 170 12,700  Level Cleveland Center
Fri 01:56:51 PM 42.0264 -77.8856 259° West 153 176 12,700  Level Cleveland Center
Fri 01:57:51 PM 42.0214 -77.9417 263° West 158 182 12,700  Level Cleveland Center
Fri 01:58:51 PM 42.0164 -78.0036 264° West 158 182 12,700  Level Cleveland Center
Fri 01:59:51 PM 42.0114 -78.0594 263° West 158 182 12,700  Level Cleveland Center
Fri 02:00:51 PM 42.0022 -78.1158 258° West 158 182 12,700  Level Cleveland Center
Fri 02:01:51 PM 41.9889 -78.1722 252° West 163 188 12,700  Level Cleveland Center
Fri 02:02:51 PM 41.9775 -78.2314 256° West 163 188 12,700  Level Cleveland Center
Fri 02:03:51 PM 41.9703 -78.2847 260° West 163 188 12,700  Level Cleveland Center
Fri 02:04:51 PM 41.9631 -78.3381 260° West 163 188 12,700 150 Level Cleveland Center
Fri 02:05:51 PM 41.9578 -78.3939 263° West 163 188 13,000 300 Climbing Cleveland Center
Fri 02:06:51 PM 41.9506 -78.4444 259° West 158 182 13,300 250 Climbing Cleveland Center
Fri 02:07:51 PM 41.9453 -78.4950 262° West 148 170 13,500 150 Climbing Cleveland Center
Fri 02:08:51 PM 41.9400 -78.5453 262° West 143 165 13,600 250 Climbing Cleveland Center
Fri 02:09:51 PM 41.9344 -78.6014 262° West 143 165 14,000 250 Climbing Cleveland Center
Fri 02:10:51 PM 41.9292 -78.6461 261° West 143 165 14,100 150 Climbing Cleveland Center
Fri 02:11:51 PM 41.9236 -78.6967 262° West 143 165 14,300 100 Climbing Cleveland Center
Fri 02:12:51 PM 41.9183 -78.7469 262° West 143 165 14,300 50 Level Cleveland Center
Fri 02:13:51 PM 41.9108 -78.8058 260° West 148 170 14,400 50 Climbing Cleveland Center
Fri 02:14:51 PM 41.9075 -78.8561 265° West 153 176 14,400  Level Cleveland Center
Fri 02:15:51 PM 41.9042 -78.9147 266° West 153 176 14,400  Level Cleveland Center
Fri 02:16:51 PM 41.8986 -78.9708 262° West 153 176 14,400  Level Cleveland Center
Fri 02:17:51 PM 41.8953 -79.0294 266° West 158 182 14,400  Level Cleveland Center
Fri 02:18:51 PM 41.8897 -79.0881 263° West 158 182 14,400  Level Cleveland Center
Fri 02:19:51 PM 41.8842 -79.1439 262° West 158 182 14,400  Level Cleveland Center
Fri 02:20:51 PM 41.8808 -79.2000 265° West 163 188 14,400  Level Cleveland Center
Fri 02:21:51 PM 41.8731 -79.2558 259° West 163 188 14,400 -50 Level Cleveland Center
Fri 02:22:51 PM 41.8633 -79.3089 256° West 163 188 14,300 -200 Descending Cleveland Center
Fri 02:23:51 PM 41.8578 -79.3650 262° West 163 188 14,000 -350 Descending Cleveland Center
Fri 02:24:51 PM 41.8500 -79.4292 261° West 168 193 13,600 -350 Descending Cleveland Center
Fri 02:25:51 PM 41.8422 -79.4933 261° West 168 193 13,300 -300 Descending Cleveland Center
Fri 02:26:51 PM 41.8367 -79.5519 263° West 168 193 13,000 -100 Descending Cleveland Center
Fri 02:27:51 PM 41.8267 -79.6106 257° West 168 193 13,100 -50 Climbing Cleveland Center
Fri 02:28:51 PM 41.8231 -79.6747 266° West 163 188 12,900 -250 Descending Cleveland Center
Fri 02:29:51 PM 41.8150 -79.7333 260° West 163 188 12,600 -400 Descending Cleveland Center
Fri 02:30:51 PM 41.8092 -79.7975 263° West 163 188 12,100 -450 Descending Cleveland Center
Fri 02:31:51 PM 41.7972 -79.8589 255° West 168 193 11,700 -350 Descending Cleveland Center
Fri 02:32:51 PM 41.7914 -79.9175 262° West 168 193 11,400 -300 Descending Cleveland Center
Fri 02:33:51 PM 41.7894 -79.9817 268° West 163 188 11,100 -450 Descending Cleveland Center
Fri 02:34:51 PM 41.7753 -80.0431 253° West 168 193 10,500 -600 Descending Cleveland Center
Fri 02:35:51 PM 41.7736 -80.1097 268° West 182 209 9,900 -450 Descending Cleveland Center
Fri 02:36:51 PM 41.7675 -80.1767 263° West 182 209 9,600 -400 Descending Cleveland Center
Fri 02:37:51 PM 41.7594 -80.2464 261° West 183 211 9,100 -550 Descending Cleveland Center
Fri 02:38:51 PM 41.7511 -80.2992 258° West 183 211 8,500 -250 Descending Cleveland Center
Fri 02:39:51 PM 41.7408 -80.3578 257° West 174 200 8,600 50 Climbing Cleveland Center
Fri 02:40:51 PM 41.7347 -80.4161 262° West 157 181 8,600  Level Cleveland Center
Fri 02:41:51 PM 41.7286 -80.4747 262° West 157 181 8,600  Level Cleveland Center
Fri 02:42:51 PM 41.7203 -80.5358 260° West 157 181 8,600  Level Cleveland Center
Fri 02:43:51 PM 41.7119 -80.5914 259° West 162 186 8,600 -116 Level Cleveland Center
Fri 02:45:00 PM 41.6976 -80.6515 252° West  Level FlightAware Approximate
Fri 02:47:09 PM 41.6764 -80.7833 257° West 169 194 8,100  Level Cleveland Center
Fri 02:47:39 PM 41.6700 -80.8167 256° West 171 197 8,000 -330 Descending Cleveland Center
Fri 02:48:40 PM 41.6594 -80.8750 256° West 170 196 7,600 -446 Descending Cleveland Center
Fri 02:49:40 PM 41.6508 -80.9417 260° West 180 207 7,100 -520 Descending Cleveland Center
Fri 02:50:47 PM 41.6381 -81.0083 256° West 177 204 6,500 -422 Descending Cleveland Center
Fri 02:51:48 PM 41.6294 -81.0719 260° West 170 196 6,200 -422 Descending Cleveland Center
Fri 02:52:00 PM 41.6269 -81.0223 257° West  Level FlightAware Approximate
Fri 02:52:55 PM 41.6147 -81.1442 255° West 175 201 5,600  Level Cleveland Center
Fri 02:53:55 PM 41.6081 -81.2108 262° West 179 206 4,900 -645 Descending Cleveland Center
Fri 02:54:56 PM 41.6036 -81.2772 265° West 181 208 4,300 -678 Descending Cleveland Center
Fri 02:55:50 PM 41.5969 -81.3356 261° West 180 207 3,600 -991 Descending Cleveland Center
Fri 02:56:45 PM 41.5922 -81.3967 264° West 180 207 2,500 -738 Descending Cleveland Center
Fri 02:57:52 PM 41.5836 -81.4575 259° West 127 146 2,100 -656 Descending Cleveland Center
Fri 02:58:53 PM 41.5686 -81.4794 228° Southwest 82 94 1,100 -984 Descending Cleveland Center
Fri 03:00:00 PM 41.5651 -81.4864 246° West  Level Estimated
Fri 03:07:00 PM 41.5651 -81.4864 246° West  Level Estimated
Fri 03:08:00 PM 41.5651 -81.4864 246° West  Level Estimated
Fri 03:09:00 PM 41.5651 -81.4864 246° West  Level Estimated
Fri 03:10:00 PM 41.5651 -81.4864 246° West  Level Estimated

Login

Don't have an account? Register now (free) for customized features, flight alerts, and more!